sensor_id;sensor_type;location;lat;lon;timestamp;pressure;altitude;pressure_sealevel;temperature
14023;BMP180;7086;48.116;11.580;2023-03-23T00:02:03;94875.00;;;16.10
14023;BMP180;7086;48.116;11.580;2023-03-23T00:04:30;94879.00;;;16.00
14023;BMP180;7086;48.116;11.580;2023-03-23T00:06:58;94872.00;;;16.10
14023;BMP180;7086;48.116;11.580;2023-03-23T00:09:26;94873.00;;;16.00
14023;BMP180;7086;48.116;11.580;2023-03-23T00:11:53;94875.00;;;16.00
14023;BMP180;7086;48.116;11.580;2023-03-23T00:14:23;94875.00;;;16.00
14023;BMP180;7086;48.116;11.580;2023-03-23T00:16:50;94874.00;;;15.90
14023;BMP180;7086;48.116;11.580;2023-03-23T00:19:17;94866.00;;;15.90
14023;BMP180;7086;48.116;11.580;2023-03-23T00:21:46;94876.00;;;15.90
14023;BMP180;7086;48.116;11.580;2023-03-23T00:24:15;94867.00;;;15.80
14023;BMP180;7086;48.116;11.580;2023-03-23T00:26:44;94864.00;;;15.80
14023;BMP180;7086;48.116;11.580;2023-03-23T00:29:14;94866.00;;;15.80
14023;BMP180;7086;48.116;11.580;2023-03-23T00:31:42;94869.00;;;15.80
14023;BMP180;7086;48.116;11.580;2023-03-23T00:34:12;94862.00;;;15.80
14023;BMP180;7086;48.116;11.580;2023-03-23T00:36:45;94857.00;;;15.80
14023;BMP180;7086;48.116;11.580;2023-03-23T00:39:13;94857.00;;;15.70
14023;BMP180;7086;48.116;11.580;2023-03-23T00:41:41;94862.00;;;15.70
14023;BMP180;7086;48.116;11.580;2023-03-23T00:44:08;94854.00;;;15.70
14023;BMP180;7086;48.116;11.580;2023-03-23T00:46:35;94853.00;;;15.70
14023;BMP180;7086;48.116;11.580;2023-03-23T00:49:10;94860.00;;;15.70
14023;BMP180;7086;48.116;11.580;2023-03-23T00:51:37;94857.00;;;15.70
14023;BMP180;7086;48.116;11.580;2023-03-23T00:54:04;94851.00;;;15.70
14023;BMP180;7086;48.116;11.580;2023-03-23T00:56:33;94855.00;;;15.70
14023;BMP180;7086;48.116;11.580;2023-03-23T00:59:00;94843.00;;;15.70
14023;BMP180;7086;48.116;11.580;2023-03-23T01:01:26;94852.00;;;15.70
14023;BMP180;7086;48.116;11.580;2023-03-23T01:03:53;94848.00;;;15.60
14023;BMP180;7086;48.116;11.580;2023-03-23T01:06:26;94848.00;;;15.70
14023;BMP180;7086;48.116;11.580;2023-03-23T01:08:53;94844.00;;;15.70
14023;BMP180;7086;48.116;11.580;2023-03-23T01:11:22;94848.00;;;15.70
14023;BMP180;7086;48.116;11.580;2023-03-23T01:13:51;94849.00;;;15.70
14023;BMP180;7086;48.116;11.580;2023-03-23T01:16:18;94848.00;;;15.70
14023;BMP180;7086;48.116;11.580;2023-03-23T01:18:44;94838.00;;;15.70
14023;BMP180;7086;48.116;11.580;2023-03-23T01:21:13;94845.00;;;15.70
14023;BMP180;7086;48.116;11.580;2023-03-23T01:23:41;94847.00;;;15.70
14023;BMP180;7086;48.116;11.580;2023-03-23T01:26:10;94841.00;;;15.60
14023;BMP180;7086;48.116;11.580;2023-03-23T01:28:38;94836.00;;;15.70
14023;BMP180;7086;48.116;11.580;2023-03-23T01:31:09;94828.00;;;15.70
14023;BMP180;7086;48.116;11.580;2023-03-23T01:33:37;94817.00;;;15.70
14023;BMP180;7086;48.116;11.580;2023-03-23T01:36:06;94829.00;;;15.80
14023;BMP180;7086;48.116;11.580;2023-03-23T01:38:34;94834.00;;;15.70
14023;BMP180;7086;48.116;11.580;2023-03-23T01:41:01;94829.00;;;15.80
14023;BMP180;7086;48.116;11.580;2023-03-23T01:43:28;94832.00;;;15.80
14023;BMP180;7086;48.116;11.580;2023-03-23T01:45:55;94829.00;;;15.80
14023;BMP180;7086;48.116;11.580;2023-03-23T01:48:26;94821.00;;;15.80
14023;BMP180;7086;48.116;11.580;2023-03-23T01:50:57;94825.00;;;15.80
14023;BMP180;7086;48.116;11.580;2023-03-23T01:53:28;94834.00;;;15.70
14023;BMP180;7086;48.116;11.580;2023-03-23T01:55:57;94839.00;;;15.70
14023;BMP180;7086;48.116;11.580;2023-03-23T01:58:26;94841.00;;;15.70
14023;BMP180;7086;48.116;11.580;2023-03-23T02:00:54;94843.00;;;15.70
14023;BMP180;7086;48.116;11.580;2023-03-23T02:03:26;94840.00;;;15.70
14023;BMP180;7086;48.116;11.580;2023-03-23T02:05:54;94829.00;;;15.70
14023;BMP180;7086;48.116;11.580;2023-03-23T02:08:24;94821.00;;;15.70
14023;BMP180;7086;48.116;11.580;2023-03-23T02:10:53;94837.00;;;15.70
14023;BMP180;7086;48.116;11.580;2023-03-23T02:13:20;94815.00;;;15.60
14023;BMP180;7086;48.116;11.580;2023-03-23T02:15:54;94829.00;;;15.60
14023;BMP180;7086;48.116;11.580;2023-03-23T02:18:34;94829.00;;;15.60
14023;BMP180;7086;48.116;11.580;2023-03-23T02:27:24;94825.00;;;15.60
14023;BMP180;7086;48.116;11.580;2023-03-23T02:30:37;94807.00;;;15.60
14023;BMP180;7086;48.116;11.580;2023-03-23T02:33:37;94816.00;;;15.60
14023;BMP180;7086;48.116;11.580;2023-03-23T02:36:12;94829.00;;;15.50
14023;BMP180;7086;48.116;11.580;2023-03-23T02:38:43;94827.00;;;15.60
14023;BMP180;7086;48.116;11.580;2023-03-23T02:41:18;94819.00;;;15.50
14023;BMP180;7086;48.116;11.580;2023-03-23T02:43:46;94815.00;;;15.60
14023;BMP180;7086;48.116;11.580;2023-03-23T02:46:14;94802.00;;;15.60
14023;BMP180;7086;48.116;11.580;2023-03-23T02:48:45;94813.00;;;15.60
14023;BMP180;7086;48.116;11.580;2023-03-23T02:51:14;94794.00;;;15.60
14023;BMP180;7086;48.116;11.580;2023-03-23T02:53:43;94816.00;;;15.60
14023;BMP180;7086;48.116;11.580;2023-03-23T02:56:11;94819.00;;;15.60
14023;BMP180;7086;48.116;11.580;2023-03-23T02:58:40;94828.00;;;15.60
14023;BMP180;7086;48.116;11.580;2023-03-23T03:04:01;94751.00;;;15.60
14023;BMP180;7086;48.116;11.580;2023-03-23T03:06:34;94823.00;;;15.60
14023;BMP180;7086;48.116;11.580;2023-03-23T03:09:05;94818.00;;;15.60
14023;BMP180;7086;48.116;11.580;2023-03-23T03:11:35;94802.00;;;15.60
14023;BMP180;7086;48.116;11.580;2023-03-23T03:14:04;94812.00;;;15.60
14023;BMP180;7086;48.116;11.580;2023-03-23T03:16:38;94800.00;;;15.60
14023;BMP180;7086;48.116;11.580;2023-03-23T03:19:11;94825.00;;;15.60
14023;BMP180;7086;48.116;11.580;2023-03-23T03:21:42;94811.00;;;15.60
14023;BMP180;7086;48.116;11.580;2023-03-23T03:24:11;94815.00;;;15.60
14023;BMP180;7086;48.116;11.580;2023-03-23T03:26:41;94807.00;;;15.50
14023;BMP180;7086;48.116;11.580;2023-03-23T03:29:11;94800.00;;;15.30
14023;BMP180;7086;48.116;11.580;2023-03-23T03:31:39;94809.00;;;15.50
14023;BMP180;7086;48.116;11.580;2023-03-23T03:34:12;94812.00;;;15.50
14023;BMP180;7086;48.116;11.580;2023-03-23T03:36:44;94806.00;;;15.50
14023;BMP180;7086;48.116;11.580;2023-03-23T03:39:13;94810.00;;;15.50
14023;BMP180;7086;48.116;11.580;2023-03-23T03:41:41;94804.00;;;15.40
14023;BMP180;7086;48.116;11.580;2023-03-23T03:44:08;94806.00;;;15.40
14023;BMP180;7086;48.116;11.580;2023-03-23T03:46:36;94807.00;;;15.40
14023;BMP180;7086;48.116;11.580;2023-03-23T03:49:05;94813.00;;;15.40
14023;BMP180;7086;48.116;11.580;2023-03-23T03:51:34;94817.00;;;15.40
14023;BMP180;7086;48.116;11.580;2023-03-23T03:54:02;94820.00;;;15.40
14023;BMP180;7086;48.116;11.580;2023-03-23T03:56:29;94820.00;;;15.40
14023;BMP180;7086;48.116;11.580;2023-03-23T03:58:57;94810.00;;;15.40
14023;BMP180;7086;48.116;11.580;2023-03-23T04:01:24;94826.00;;;15.40
14023;BMP180;7086;48.116;11.580;2023-03-23T04:03:51;94830.00;;;15.40
14023;BMP180;7086;48.116;11.580;2023-03-23T04:06:18;94840.00;;;15.40
14023;BMP180;7086;48.116;11.580;2023-03-23T04:08:47;94816.00;;;15.40
14023;BMP180;7086;48.116;11.580;2023-03-23T04:11:14;94818.00;;;15.40
14023;BMP180;7086;48.116;11.580;2023-03-23T04:13:41;94801.00;;;15.40
14023;BMP180;7086;48.116;11.580;2023-03-23T04:16:08;94798.00;;;15.30
14023;BMP180;7086;48.116;11.580;2023-03-23T04:18:35;94826.00;;;15.20
14023;BMP180;7086;48.116;11.580;2023-03-23T04:21:03;94813.00;;;15.30
14023;BMP180;7086;48.116;11.580;2023-03-23T04:23:31;94842.00;;;15.20
14023;BMP180;7086;48.116;11.580;2023-03-23T04:26:02;94837.00;;;15.30
14023;BMP180;7086;48.116;11.580;2023-03-23T04:28:29;94839.00;;;15.20
14023;BMP180;7086;48.116;11.580;2023-03-23T04:30:59;94828.00;;;15.20
14023;BMP180;7086;48.116;11.580;2023-03-23T04:33:27;94833.00;;;15.20
14023;BMP180;7086;48.116;11.580;2023-03-23T04:35:58;94852.00;;;15.10
14023;BMP180;7086;48.116;11.580;2023-03-23T04:38:27;94849.00;;;15.10
14023;BMP180;7086;48.116;11.580;2023-03-23T04:40:55;94841.00;;;15.10
14023;BMP180;7086;48.116;11.580;2023-03-23T04:43:23;94851.00;;;15.10
14023;BMP180;7086;48.116;11.580;2023-03-23T04:45:53;94851.00;;;15.10
14023;BMP180;7086;48.116;11.580;2023-03-23T04:48:21;94849.00;;;15.10
14023;BMP180;7086;48.116;11.580;2023-03-23T04:50:48;94865.00;;;15.00
14023;BMP180;7086;48.116;11.580;2023-03-23T04:53:16;94840.00;;;15.10
14023;BMP180;7086;48.116;11.580;2023-03-23T04:55:44;94844.00;;;15.00
14023;BMP180;7086;48.116;11.580;2023-03-23T04:58:11;94842.00;;;15.10
14023;BMP180;7086;48.116;11.580;2023-03-23T05:00:41;94859.00;;;15.10
14023;BMP180;7086;48.116;11.580;2023-03-23T05:03:15;94832.00;;;15.10
14023;BMP180;7086;48.116;11.580;2023-03-23T05:05:42;94842.00;;;15.10
14023;BMP180;7086;48.116;11.580;2023-03-23T05:08:12;94870.00;;;15.20
14023;BMP180;7086;48.116;11.580;2023-03-23T05:10:39;94832.00;;;15.10
14023;BMP180;7086;48.116;11.580;2023-03-23T05:13:06;94860.00;;;15.10
14023;BMP180;7086;48.116;11.580;2023-03-23T05:15:33;94852.00;;;15.20
14023;BMP180;7086;48.116;11.580;2023-03-23T05:18:01;94828.00;;;15.20
14023;BMP180;7086;48.116;11.580;2023-03-23T05:20:28;94811.00;;;15.30
14023;BMP180;7086;48.116;11.580;2023-03-23T05:22:55;94856.00;;;15.30
14023;BMP180;7086;48.116;11.580;2023-03-23T05:25:23;94842.00;;;15.30
14023;BMP180;7086;48.116;11.580;2023-03-23T05:27:50;94862.00;;;15.30
14023;BMP180;7086;48.116;11.580;2023-03-23T05:30:19;94865.00;;;15.30
14023;BMP180;7086;48.116;11.580;2023-03-23T05:32:46;94871.00;;;15.30
14023;BMP180;7086;48.116;11.580;2023-03-23T05:35:18;94896.00;;;15.40
14023;BMP180;7086;48.116;11.580;2023-03-23T05:37:45;94888.00;;;15.40
14023;BMP180;7086;48.116;11.580;2023-03-23T05:40:13;94868.00;;;15.40
14023;BMP180;7086;48.116;11.580;2023-03-23T05:42:40;94863.00;;;15.40
14023;BMP180;7086;48.116;11.580;2023-03-23T05:45:09;94884.00;;;15.40
14023;BMP180;7086;48.116;11.580;2023-03-23T05:47:36;94859.00;;;15.40
14023;BMP180;7086;48.116;11.580;2023-03-23T05:50:04;94824.00;;;15.40
14023;BMP180;7086;48.116;11.580;2023-03-23T05:52:33;94859.00;;;15.40
14023;BMP180;7086;48.116;11.580;2023-03-23T05:55:01;94820.00;;;15.40
14023;BMP180;7086;48.116;11.580;2023-03-23T05:57:29;94846.00;;;15.40
14023;BMP180;7086;48.116;11.580;2023-03-23T05:59:55;94827.00;;;15.40
14023;BMP180;7086;48.116;11.580;2023-03-23T06:02:23;94802.00;;;15.40
14023;BMP180;7086;48.116;11.580;2023-03-23T06:04:49;94821.00;;;15.30
14023;BMP180;7086;48.116;11.580;2023-03-23T06:07:22;94816.00;;;15.40
14023;BMP180;7086;48.116;11.580;2023-03-23T06:09:51;94837.00;;;15.40
14023;BMP180;7086;48.116;11.580;2023-03-23T06:12:19;94771.00;;;15.40
14023;BMP180;7086;48.116;11.580;2023-03-23T06:14:46;94770.00;;;15.40
14023;BMP180;7086;48.116;11.580;2023-03-23T06:17:13;94805.00;;;15.30
14023;BMP180;7086;48.116;11.580;2023-03-23T06:19:40;94819.00;;;15.30
14023;BMP180;7086;48.116;11.580;2023-03-23T06:22:07;94827.00;;;15.30
14023;BMP180;7086;48.116;11.580;2023-03-23T06:24:34;94807.00;;;15.30
14023;BMP180;7086;48.116;11.580;2023-03-23T06:27:03;94807.00;;;15.30
14023;BMP180;7086;48.116;11.580;2023-03-23T06:29:30;94844.00;;;15.20
14023;BMP180;7086;48.116;11.580;2023-03-23T06:32:00;94859.00;;;15.30
14023;BMP180;7086;48.116;11.580;2023-03-23T06:34:27;94851.00;;;15.40
14023;BMP180;7086;48.116;11.580;2023-03-23T06:36:55;94878.00;;;15.50
14023;BMP180;7086;48.116;11.580;2023-03-23T06:39:22;94851.00;;;15.50
14023;BMP180;7086;48.116;11.580;2023-03-23T06:41:49;94838.00;;;15.60
14023;BMP180;7086;48.116;11.580;2023-03-23T06:44:17;94858.00;;;15.60
14023;BMP180;7086;48.116;11.580;2023-03-23T06:46:45;94834.00;;;15.70
14023;BMP180;7086;48.116;11.580;2023-03-23T06:49:13;94751.00;;;15.70
14023;BMP180;7086;48.116;11.580;2023-03-23T06:51:41;94745.00;;;15.80
14023;BMP180;7086;48.116;11.580;2023-03-23T06:54:08;94823.00;;;15.80
14023;BMP180;7086;48.116;11.580;2023-03-23T06:56:36;94817.00;;;15.90
14023;BMP180;7086;48.116;11.580;2023-03-23T06:59:03;94799.00;;;15.90
14023;BMP180;7086;48.116;11.580;2023-03-23T07:01:31;94810.00;;;15.90
14023;BMP180;7086;48.116;11.580;2023-03-23T07:03:58;94805.00;;;16.00
14023;BMP180;7086;48.116;11.580;2023-03-23T07:06:25;94790.00;;;16.00
14023;BMP180;7086;48.116;11.580;2023-03-23T07:08:52;94805.00;;;16.10
14023;BMP180;7086;48.116;11.580;2023-03-23T07:11:19;94784.00;;;16.10
14023;BMP180;7086;48.116;11.580;2023-03-23T07:13:46;94813.00;;;16.00
14023;BMP180;7086;48.116;11.580;2023-03-23T07:16:15;94810.00;;;16.10
14023;BMP180;7086;48.116;11.580;2023-03-23T07:18:43;94819.00;;;16.20
14023;BMP180;7086;48.116;11.580;2023-03-23T07:21:10;94829.00;;;16.30
14023;BMP180;7086;48.116;11.580;2023-03-23T07:23:37;94765.00;;;16.40
14023;BMP180;7086;48.116;11.580;2023-03-23T07:26:04;94838.00;;;16.60
14023;BMP180;7086;48.116;11.580;2023-03-23T07:28:32;94828.00;;;16.80
14023;BMP180;7086;48.116;11.580;2023-03-23T07:30:59;94829.00;;;17.00
14023;BMP180;7086;48.116;11.580;2023-03-23T07:33:26;94763.00;;;17.20
14023;BMP180;7086;48.116;11.580;2023-03-23T07:35:55;94807.00;;;17.40
14023;BMP180;7086;48.116;11.580;2023-03-23T07:38:25;94826.00;;;17.60
14023;BMP180;7086;48.116;11.580;2023-03-23T07:40:52;94811.00;;;17.90
14023;BMP180;7086;48.116;11.580;2023-03-23T07:43:21;94810.00;;;18.20
14023;BMP180;7086;48.116;11.580;2023-03-23T07:45:48;94811.00;;;18.50
14023;BMP180;7086;48.116;11.580;2023-03-23T07:48:15;94820.00;;;18.90
14023;BMP180;7086;48.116;11.580;2023-03-23T07:50:42;94801.00;;;19.20
14023;BMP180;7086;48.116;11.580;2023-03-23T07:53:10;94819.00;;;19.50
14023;BMP180;7086;48.116;11.580;2023-03-23T07:55:37;94814.00;;;19.70
14023;BMP180;7086;48.116;11.580;2023-03-23T07:58:04;94798.00;;;20.00
14023;BMP180;7086;48.116;11.580;2023-03-23T08:00:31;94817.00;;;20.30
14023;BMP180;7086;48.116;11.580;2023-03-23T08:02:58;94826.00;;;20.50
14023;BMP180;7086;48.116;11.580;2023-03-23T08:05:26;94811.00;;;20.70
14023;BMP180;7086;48.116;11.580;2023-03-23T08:07:54;94814.00;;;20.80
14023;BMP180;7086;48.116;11.580;2023-03-23T08:10:23;94813.00;;;20.80
14023;BMP180;7086;48.116;11.580;2023-03-23T08:12:51;94811.00;;;20.80
14023;BMP180;7086;48.116;11.580;2023-03-23T08:15:20;94817.00;;;20.80
14023;BMP180;7086;48.116;11.580;2023-03-23T08:17:49;94818.00;;;20.70
14023;BMP180;7086;48.116;11.580;2023-03-23T08:20:17;94813.00;;;20.70
14023;BMP180;7086;48.116;11.580;2023-03-23T08:22:50;94819.00;;;20.70
14023;BMP180;7086;48.116;11.580;2023-03-23T08:25:18;94820.00;;;20.70
14023;BMP180;7086;48.116;11.580;2023-03-23T08:27:47;94819.00;;;20.60
14023;BMP180;7086;48.116;11.580;2023-03-23T08:30:16;94806.00;;;20.60
14023;BMP180;7086;48.116;11.580;2023-03-23T08:32:45;94817.00;;;20.50
14023;BMP180;7086;48.116;11.580;2023-03-23T08:35:13;94828.00;;;20.50
14023;BMP180;7086;48.116;11.580;2023-03-23T08:37:41;94829.00;;;20.50
14023;BMP180;7086;48.116;11.580;2023-03-23T08:40:10;94825.00;;;20.50
14023;BMP180;7086;48.116;11.580;2023-03-23T08:42:40;94832.00;;;20.50
14023;BMP180;7086;48.116;11.580;2023-03-23T08:45:11;94823.00;;;20.50
14023;BMP180;7086;48.116;11.580;2023-03-23T08:47:39;94834.00;;;20.50
14023;BMP180;7086;48.116;11.580;2023-03-23T08:50:10;94820.00;;;20.50
14023;BMP180;7086;48.116;11.580;2023-03-23T08:52:37;94821.00;;;20.60
14023;BMP180;7086;48.116;11.580;2023-03-23T08:55:05;94822.00;;;20.60
14023;BMP180;7086;48.116;11.580;2023-03-23T08:57:34;94823.00;;;20.70
14023;BMP180;7086;48.116;11.580;2023-03-23T09:00:02;94844.00;;;20.80
14023;BMP180;7086;48.116;11.580;2023-03-23T09:02:41;94852.00;;;20.90
14023;BMP180;7086;48.116;11.580;2023-03-23T09:05:10;94855.00;;;21.20
14023;BMP180;7086;48.116;11.580;2023-03-23T09:07:37;94856.00;;;21.40
14023;BMP180;7086;48.116;11.580;2023-03-23T09:10:06;94868.00;;;21.60
14023;BMP180;7086;48.116;11.580;2023-03-23T09:12:33;94810.00;;;21.70
14023;BMP180;7086;48.116;11.580;2023-03-23T09:15:00;94861.00;;;21.70
14023;BMP180;7086;48.116;11.580;2023-03-23T09:17:30;94838.00;;;22.10
14023;BMP180;7086;48.116;11.580;2023-03-23T09:19:59;94867.00;;;22.30
14023;BMP180;7086;48.116;11.580;2023-03-23T09:22:25;94874.00;;;22.40
14023;BMP180;7086;48.116;11.580;2023-03-23T09:24:53;94871.00;;;22.50
14023;BMP180;7086;48.116;11.580;2023-03-23T09:27:19;94866.00;;;22.50
14023;BMP180;7086;48.116;11.580;2023-03-23T09:29:46;94829.00;;;22.70
14023;BMP180;7086;48.116;11.580;2023-03-23T09:32:14;94888.00;;;22.80
14023;BMP180;7086;48.116;11.580;2023-03-23T09:34:41;94887.00;;;22.90
14023;BMP180;7086;48.116;11.580;2023-03-23T09:37:09;94887.00;;;23.00
14023;BMP180;7086;48.116;11.580;2023-03-23T09:39:38;94894.00;;;23.10
14023;BMP180;7086;48.116;11.580;2023-03-23T09:42:20;94895.00;;;23.20
14023;BMP180;7086;48.116;11.580;2023-03-23T09:45:06;94893.00;;;23.30
14023;BMP180;7086;48.116;11.580;2023-03-23T09:47:43;94899.00;;;23.40
14023;BMP180;7086;48.116;11.580;2023-03-23T09:50:15;94887.00;;;23.50
14023;BMP180;7086;48.116;11.580;2023-03-23T09:52:49;94887.00;;;23.60
14023;BMP180;7086;48.116;11.580;2023-03-23T09:55:19;94879.00;;;23.70
14023;BMP180;7086;48.116;11.580;2023-03-23T09:57:51;94883.00;;;23.80
14023;BMP180;7086;48.116;11.580;2023-03-23T10:00:23;94891.00;;;23.90
14023;BMP180;7086;48.116;11.580;2023-03-23T10:02:58;94887.00;;;24.10
14023;BMP180;7086;48.116;11.580;2023-03-23T10:05:32;94879.00;;;24.40
14023;BMP180;7086;48.116;11.580;2023-03-23T10:08:03;94877.00;;;24.60
14023;BMP180;7086;48.116;11.580;2023-03-23T10:10:39;94912.00;;;24.90
14023;BMP180;7086;48.116;11.580;2023-03-23T10:13:17;94892.00;;;25.10
14023;BMP180;7086;48.116;11.580;2023-03-23T10:15:46;94896.00;;;25.30
14023;BMP180;7086;48.116;11.580;2023-03-23T10:18:17;94884.00;;;25.50
14023;BMP180;7086;48.116;11.580;2023-03-23T10:20:54;94885.00;;;25.50
14023;BMP180;7086;48.116;11.580;2023-03-23T10:23:42;94873.00;;;25.50
14023;BMP180;7086;48.116;11.580;2023-03-23T10:26:21;94898.00;;;25.50
14023;BMP180;7086;48.116;11.580;2023-03-23T10:28:52;94904.00;;;25.40
14023;BMP180;7086;48.116;11.580;2023-03-23T10:31:23;94899.00;;;25.30
14023;BMP180;7086;48.116;11.580;2023-03-23T10:33:53;94904.00;;;25.10
14023;BMP180;7086;48.116;11.580;2023-03-23T10:36:24;94904.00;;;25.00
14023;BMP180;7086;48.116;11.580;2023-03-23T10:38:59;94894.00;;;24.80
14023;BMP180;7086;48.116;11.580;2023-03-23T10:41:27;94890.00;;;24.70
14023;BMP180;7086;48.116;11.580;2023-03-23T10:43:55;94912.00;;;24.70
14023;BMP180;7086;48.116;11.580;2023-03-23T10:46:29;94888.00;;;24.60
14023;BMP180;7086;48.116;11.580;2023-03-23T10:49:00;94909.00;;;24.50
14023;BMP180;7086;48.116;11.580;2023-03-23T10:51:35;94902.00;;;24.40
14023;BMP180;7086;48.116;11.580;2023-03-23T10:54:05;94893.00;;;24.40
14023;BMP180;7086;48.116;11.580;2023-03-23T10:56:36;94914.00;;;24.40
14023;BMP180;7086;48.116;11.580;2023-03-23T10:59:15;94901.00;;;24.40
14023;BMP180;7086;48.116;11.580;2023-03-23T11:01:48;94896.00;;;24.40
14023;BMP180;7086;48.116;11.580;2023-03-23T11:04:20;94874.00;;;24.50
14023;BMP180;7086;48.116;11.580;2023-03-23T11:06:51;94901.00;;;24.50
14023;BMP180;7086;48.116;11.580;2023-03-23T11:09:33;94891.00;;;24.60
14023;BMP180;7086;48.116;11.580;2023-03-23T11:12:02;94857.00;;;24.60
14023;BMP180;7086;48.116;11.580;2023-03-23T11:14:30;94902.00;;;24.60
14023;BMP180;7086;48.116;11.580;2023-03-23T11:17:02;94905.00;;;24.70
14023;BMP180;7086;48.116;11.580;2023-03-23T11:19:30;94899.00;;;24.80
14023;BMP180;7086;48.116;11.580;2023-03-23T11:22:06;94904.00;;;24.80
14023;BMP180;7086;48.116;11.580;2023-03-23T11:24:47;94895.00;;;24.70
14023;BMP180;7086;48.116;11.580;2023-03-23T11:27:15;94896.00;;;24.80
14023;BMP180;7086;48.116;11.580;2023-03-23T11:29:49;94897.00;;;24.70
14023;BMP180;7086;48.116;11.580;2023-03-23T11:32:17;94874.00;;;24.80
14023;BMP180;7086;48.116;11.580;2023-03-23T11:34:47;94881.00;;;24.80
14023;BMP180;7086;48.116;11.580;2023-03-23T11:37:19;94905.00;;;24.90
14023;BMP180;7086;48.116;11.580;2023-03-23T11:39:56;94898.00;;;25.00
14023;BMP180;7086;48.116;11.580;2023-03-23T11:42:26;94877.00;;;25.10
14023;BMP180;7086;48.116;11.580;2023-03-23T11:45:15;94874.00;;;25.20
14023;BMP180;7086;48.116;11.580;2023-03-23T11:47:49;94887.00;;;25.30
14023;BMP180;7086;48.116;11.580;2023-03-23T11:50:21;94892.00;;;25.40
14023;BMP180;7086;48.116;11.580;2023-03-23T11:52:54;94885.00;;;25.50
14023;BMP180;7086;48.116;11.580;2023-03-23T11:55:32;94895.00;;;25.70
14023;BMP180;7086;48.116;11.580;2023-03-23T11:58:11;94888.00;;;25.70
14023;BMP180;7086;48.116;11.580;2023-03-23T12:00:42;94856.00;;;25.80
14023;BMP180;7086;48.116;11.580;2023-03-23T12:03:13;94881.00;;;25.90
14023;BMP180;7086;48.116;11.580;2023-03-23T12:05:48;94882.00;;;25.90
14023;BMP180;7086;48.116;11.580;2023-03-23T12:08:44;94885.00;;;26.00
14023;BMP180;7086;48.116;11.580;2023-03-23T12:11:21;94873.00;;;25.90
14023;BMP180;7086;48.116;11.580;2023-03-23T12:14:01;94857.00;;;25.80
14023;BMP180;7086;48.116;11.580;2023-03-23T12:16:56;94865.00;;;25.90
14023;BMP180;7086;48.116;11.580;2023-03-23T12:19:36;94830.00;;;25.60
14023;BMP180;7086;48.116;11.580;2023-03-23T12:22:12;94870.00;;;26.00
14023;BMP180;7086;48.116;11.580;2023-03-23T12:24:50;94869.00;;;26.10
14023;BMP180;7086;48.116;11.580;2023-03-23T12:27:27;94866.00;;;26.10
14023;BMP180;7086;48.116;11.580;2023-03-23T12:30:19;94855.00;;;26.20
14023;BMP180;7086;48.116;11.580;2023-03-23T12:33:03;94848.00;;;26.20
14023;BMP180;7086;48.116;11.580;2023-03-23T12:35:44;94869.00;;;26.20
14023;BMP180;7086;48.116;11.580;2023-03-23T12:38:28;94873.00;;;26.20
14023;BMP180;7086;48.116;11.580;2023-03-23T12:41:12;94871.00;;;26.20
14023;BMP180;7086;48.116;11.580;2023-03-23T12:43:51;94861.00;;;26.20
14023;BMP180;7086;48.116;11.580;2023-03-23T12:49:15;94855.00;;;26.00
14023;BMP180;7086;48.116;11.580;2023-03-23T12:51:49;94852.00;;;26.00
14023;BMP180;7086;48.116;11.580;2023-03-23T12:54:23;94830.00;;;25.90
14023;BMP180;7086;48.116;11.580;2023-03-23T12:56:54;94820.00;;;25.90
14023;BMP180;7086;48.116;11.580;2023-03-23T12:59:32;94791.00;;;25.90
14023;BMP180;7086;48.116;11.580;2023-03-23T13:02:05;94830.00;;;25.80
14023;BMP180;7086;48.116;11.580;2023-03-23T13:04:51;94808.00;;;25.80
14023;BMP180;7086;48.116;11.580;2023-03-23T13:07:23;94850.00;;;25.60
14023;BMP180;7086;48.116;11.580;2023-03-23T13:09:55;94792.00;;;25.80
14023;BMP180;7086;48.116;11.580;2023-03-23T13:12:26;94871.00;;;25.80
14023;BMP180;7086;48.116;11.580;2023-03-23T13:15:03;94841.00;;;25.80
14023;BMP180;7086;48.116;11.580;2023-03-23T13:17:39;94846.00;;;25.70
14023;BMP180;7086;48.116;11.580;2023-03-23T13:23:07;94804.00;;;25.30
14023;BMP180;7086;48.116;11.580;2023-03-23T13:25:49;94790.00;;;25.40
14023;BMP180;7086;48.116;11.580;2023-03-23T13:28:27;94860.00;;;25.30
14023;BMP180;7086;48.116;11.580;2023-03-23T13:31:14;94832.00;;;25.20
14023;BMP180;7086;48.116;11.580;2023-03-23T13:33:49;94768.00;;;25.10
14023;BMP180;7086;48.116;11.580;2023-03-23T13:36:27;94825.00;;;25.00
14023;BMP180;7086;48.116;11.580;2023-03-23T13:38:58;94848.00;;;24.90
14023;BMP180;7086;48.116;11.580;2023-03-23T13:41:26;94837.00;;;24.90
14023;BMP180;7086;48.116;11.580;2023-03-23T13:44:05;94802.00;;;24.80
14023;BMP180;7086;48.116;11.580;2023-03-23T13:46:41;94760.00;;;24.90
14023;BMP180;7086;48.116;11.580;2023-03-23T13:49:18;94815.00;;;24.90
14023;BMP180;7086;48.116;11.580;2023-03-23T13:54:41;94819.00;;;24.80
14023;BMP180;7086;48.116;11.580;2023-03-23T13:57:25;94797.00;;;24.60
14023;BMP180;7086;48.116;11.580;2023-03-23T13:59:58;94822.00;;;24.70
14023;BMP180;7086;48.116;11.580;2023-03-23T14:02:35;94828.00;;;24.70
14023;BMP180;7086;48.116;11.580;2023-03-23T14:05:35;94823.00;;;24.70
14023;BMP180;7086;48.116;11.580;2023-03-23T14:08:10;94843.00;;;24.80
14023;BMP180;7086;48.116;11.580;2023-03-23T14:10:42;94820.00;;;24.60
14023;BMP180;7086;48.116;11.580;2023-03-23T14:13:18;94806.00;;;24.80
14023;BMP180;7086;48.116;11.580;2023-03-23T14:15:56;94824.00;;;24.80
14023;BMP180;7086;48.116;11.580;2023-03-23T14:18:30;94819.00;;;24.80
14023;BMP180;7086;48.116;11.580;2023-03-23T14:21:03;94821.00;;;24.80
14023;BMP180;7086;48.116;11.580;2023-03-23T14:23:32;94822.00;;;24.60
14023;BMP180;7086;48.116;11.580;2023-03-23T14:26:02;94832.00;;;24.60
14023;BMP180;7086;48.116;11.580;2023-03-23T14:28:37;94829.00;;;24.50
14023;BMP180;7086;48.116;11.580;2023-03-23T14:31:20;94775.00;;;24.50
14023;BMP180;7086;48.116;11.580;2023-03-23T14:33:56;94822.00;;;24.50
14023;BMP180;7086;48.116;11.580;2023-03-23T14:36:28;94827.00;;;24.40
14023;BMP180;7086;48.116;11.580;2023-03-23T14:39:00;94827.00;;;24.40
14023;BMP180;7086;48.116;11.580;2023-03-23T14:41:29;94825.00;;;24.40
14023;BMP180;7086;48.116;11.580;2023-03-23T14:43:57;94814.00;;;24.40
14023;BMP180;7086;48.116;11.580;2023-03-23T14:46:27;94827.00;;;24.40
14023;BMP180;7086;48.116;11.580;2023-03-23T14:48:56;94816.00;;;24.40